Time;durP1;ratioP1;P1;durP2;ratioP2;P2;SDS_P1;SDS_P2;PMS_P1;PMS_P2;Temp;Humidity;BMP_temperature;BMP_pressure;BME280_temperature;BME280_humidity;BME280_pressure;Samples;Min_cycle;Max_cycle;Signal;HPM_P1;HPM_P2
2023/10/11 00:00:25;;;;;;;9.87;3.30;;;;;;;;;;5009593;28;20176;-74
2023/10/11 00:02:50;;;;;;;8.97;3.60;;;;;;;;;;5010609;28;20177;-74
2023/10/11 00:05:17;;;;;;;6.57;3.40;;;;;;;;;;5009709;28;20331;-74
2023/10/11 00:07:44;;;;;;;9.97;3.77;;;;;;;;;;5009623;28;20206;-74
2023/10/11 00:10:10;;;;;;;11.50;4.63;;;;;;;;;;5008498;28;20306;-74
2023/10/11 00:12:36;;;;;;;8.40;3.57;;;;;;;;;;5010052;28;20270;-74
2023/10/11 00:15:02;;;;;;;8.23;3.67;;;;;;;;;;5006899;28;20384;-74
2023/10/11 00:17:28;;;;;;;6.20;3.23;;;;;;;;;;5006561;28;20187;-75
2023/10/11 00:19:53;;;;;;;11.30;4.23;;;;;;;;;;5021264;28;20186;-74
2023/10/11 00:22:18;;;;;;;5.43;3.27;;;;;;;;;;5008013;28;20172;-74
2023/10/11 00:24:44;;;;;;;8.63;3.60;;;;;;;;;;5007907;28;20179;-74
2023/10/11 00:27:10;;;;;;;5.87;3.60;;;;;;;;;;5010433;28;20216;-74
2023/10/11 00:29:39;;;;;;;6.00;3.43;;;;;;;;;;5003987;28;20250;-74
2023/10/11 00:32:04;;;;;;;11.37;4.53;;;;;;;;;;5006041;28;20166;-74
2023/10/11 00:34:29;;;;;;;10.00;4.30;;;;;;;;;;5008322;28;20262;-74
2023/10/11 00:36:54;;;;;;;9.47;3.50;;;;;;;;;;5002641;28;20212;-73
2023/10/11 00:39:20;;;;;;;7.70;3.90;;;;;;;;;;5006012;28;20184;-74
2023/10/11 00:41:48;;;;;;;5.70;3.50;;;;;;;;;;5007973;28;20207;-74
2023/10/11 00:44:17;;;;;;;6.20;3.50;;;;;;;;;;5013676;28;20208;-74
2023/10/11 00:49:17;;;;;;;7.30;3.50;;;;;;;;;;5009260;28;20169;-74
2023/10/11 00:51:44;;;;;;;8.17;3.70;;;;;;;;;;5014296;28;20245;-74
2023/10/11 00:54:13;;;;;;;7.63;3.93;;;;;;;;;;5009134;28;20180;-74
2023/10/11 00:56:43;;;;;;;7.87;3.63;;;;;;;;;;5013449;28;20183;-74
2023/10/11 00:59:10;;;;;;;6.23;3.33;;;;;;;;;;5007505;28;20202;-74
2023/10/11 01:01:36;;;;;;;5.73;3.70;;;;;;;;;;5012523;28;20183;-74
2023/10/11 01:04:02;;;;;;;6.70;3.73;;;;;;;;;;5009501;28;20182;-74
2023/10/11 01:06:28;;;;;;;12.80;3.73;;;;;;;;;;5011703;28;20284;-74
2023/10/11 01:08:54;;;;;;;12.43;3.53;;;;;;;;;;5012048;28;20175;-74
2023/10/11 01:11:19;;;;;;;5.27;3.40;;;;;;;;;;5008466;28;20181;-74
2023/10/11 01:13:50;;;;;;;7.63;3.80;;;;;;;;;;5008763;28;20190;-74
2023/10/11 01:16:16;;;;;;;4.93;3.13;;;;;;;;;;5007258;28;20187;-75
2023/10/11 01:18:42;;;;;;;7.73;3.40;;;;;;;;;;5009003;28;20265;-74
2023/10/11 01:21:08;;;;;;;6.10;3.60;;;;;;;;;;5008429;28;20179;-74
2023/10/11 01:23:34;;;;;;;7.67;3.70;;;;;;;;;;5010960;28;20271;-74
2023/10/11 01:26:05;;;;;;;7.33;3.97;;;;;;;;;;5010668;28;20215;-74
2023/10/11 01:28:31;;;;;;;8.80;3.97;;;;;;;;;;5016138;28;20187;-74
2023/10/11 01:30:56;;;;;;;7.10;4.33;;;;;;;;;;5012321;28;20198;-75
2023/10/11 01:33:21;;;;;;;7.00;3.70;;;;;;;;;;5005095;28;20187;-74
2023/10/11 01:35:48;;;;;;;7.73;3.73;;;;;;;;;;5005720;28;20187;-74
2023/10/11 01:38:17;;;;;;;10.13;3.63;;;;;;;;;;4999331;28;20254;-74
2023/10/11 01:40:43;;;;;;;6.97;3.90;;;;;;;;;;5007800;28;20262;-74
2023/10/11 01:43:08;;;;;;;10.70;4.03;;;;;;;;;;5009397;28;20182;-73
2023/10/11 01:45:34;;;;;;;7.03;3.73;;;;;;;;;;5006535;28;20198;-74
2023/10/11 01:48:00;;;;;;;9.77;4.10;;;;;;;;;;5010773;28;20192;-74
2023/10/11 01:50:28;;;;;;;5.60;4.17;;;;;;;;;;5011335;28;20186;-74
2023/10/11 01:52:53;;;;;;;6.27;3.77;;;;;;;;;;5008942;28;20190;-74
2023/10/11 01:55:19;;;;;;;5.23;3.83;;;;;;;;;;5011463;28;20173;-75
2023/10/11 01:57:49;;;;;;;6.43;3.63;;;;;;;;;;5007434;28;20224;-74
2023/10/11 02:00:15;;;;;;;10.20;3.60;;;;;;;;;;5008542;28;20189;-74
2023/10/11 02:03:08;;;;;;;15.63;4.17;;;;;;;;;;5006719;28;20199;-74
2023/10/11 02:05:31;;;;;;;8.53;4.73;;;;;;;;;;5007729;28;20229;-74
2023/10/11 02:07:56;;;;;;;8.30;3.60;;;;;;;;;;5008833;28;20261;-74
2023/10/11 02:10:27;;;;;;;10.47;3.90;;;;;;;;;;5013461;28;20197;-74
2023/10/11 02:12:55;;;;;;;9.40;3.90;;;;;;;;;;5009450;28;20179;-74
2023/10/11 02:15:21;;;;;;;10.10;4.57;;;;;;;;;;5013632;28;20262;-74
2023/10/11 02:17:51;;;;;;;7.37;4.20;;;;;;;;;;5013249;28;20182;-74
2023/10/11 02:20:20;;;;;;;6.77;3.10;;;;;;;;;;5008770;28;20202;-74
2023/10/11 02:22:45;;;;;;;8.27;4.33;;;;;;;;;;5010090;28;20206;-74
2023/10/11 02:25:15;;;;;;;8.37;4.53;;;;;;;;;;5006340;28;20248;-74
2023/10/11 02:27:41;;;;;;;7.83;3.77;;;;;;;;;;5013357;28;20215;-74
2023/10/11 02:30:13;;;;;;;8.50;4.33;;;;;;;;;;5011067;28;20319;-74
2023/10/11 02:32:41;;;;;;;6.63;3.90;;;;;;;;;;5010743;28;20181;-74
2023/10/11 02:35:08;;;;;;;6.93;3.97;;;;;;;;;;5007981;28;20185;-74
2023/10/11 02:37:36;;;;;;;5.63;2.93;;;;;;;;;;5013493;28;20207;-74
2023/10/11 02:40:06;;;;;;;6.70;3.40;;;;;;;;;;5005595;28;20198;-74
2023/10/11 02:42:31;;;;;;;5.50;3.40;;;;;;;;;;5009861;28;20197;-74
2023/10/11 02:45:04;;;;;;;9.93;3.60;;;;;;;;;;5008750;28;20230;-74
2023/10/11 02:47:30;;;;;;;10.00;4.23;;;;;;;;;;5007634;28;20199;-74
2023/10/11 02:49:55;;;;;;;7.97;3.43;;;;;;;;;;5008137;28;20226;-74
2023/10/11 02:52:29;;;;;;;6.30;3.73;;;;;;;;;;5007614;28;20184;-74
2023/10/11 02:54:54;;;;;;;7.90;4.73;;;;;;;;;;5006264;28;20187;-74
2023/10/11 02:57:20;;;;;;;9.33;3.93;;;;;;;;;;5013820;28;20191;-74
2023/10/11 02:59:50;;;;;;;9.83;4.00;;;;;;;;;;5012770;28;20181;-74
2023/10/11 03:02:15;;;;;;;11.40;4.40;;;;;;;;;;5006050;28;20185;-74
2023/10/11 03:04:41;;;;;;;8.30;3.90;;;;;;;;;;5008999;28;20271;-74
2023/10/11 03:07:12;;;;;;;10.97;4.43;;;;;;;;;;5011454;28;20211;-74
2023/10/11 03:09:38;;;;;;;8.57;3.70;;;;;;;;;;5005465;28;20238;-74
2023/10/11 03:12:17;;;;;;;8.00;3.87;;;;;;;;;;5029747;28;20282;-74
2023/10/11 03:14:43;;;;;;;9.17;4.53;;;;;;;;;;5002231;28;20177;-74
2023/10/11 03:17:16;;;;;;;9.27;4.20;;;;;;;;;;5004659;28;20172;-75
2023/10/11 03:19:45;;;;;;;11.57;3.83;;;;;;;;;;5024671;28;20275;-74
2023/10/11 03:22:19;;;;;;;9.60;4.17;;;;;;;;;;5011163;28;20187;-74
2023/10/11 03:24:48;;;;;;;9.87;4.10;;;;;;;;;;5007816;28;20236;-74
2023/10/11 03:27:14;;;;;;;5.47;3.63;;;;;;;;;;5012223;28;20509;-74
2023/10/11 03:29:40;;;;;;;11.17;4.17;;;;;;;;;;5020376;28;20271;-74
2023/10/11 03:32:05;;;;;;;10.73;4.03;;;;;;;;;;5011712;28;20176;-74
2023/10/11 03:34:30;;;;;;;5.63;3.30;;;;;;;;;;5015362;28;20216;-74
2023/10/11 03:37:00;;;;;;;10.60;5.60;;;;;;;;;;5016127;28;20184;-75
2023/10/11 03:44:39;;;;;;;7.13;3.50;;;;;;;;;;5011887;28;20183;-74
2023/10/11 03:47:07;;;;;;;9.13;5.47;;;;;;;;;;5012937;28;20227;-75
2023/10/11 03:49:38;;;;;;;6.80;3.67;;;;;;;;;;5010719;28;20181;-74
2023/10/11 03:52:16;;;;;;;6.60;3.67;;;;;;;;;;5006688;28;20190;-74
2023/10/11 03:54:42;;;;;;;7.27;3.97;;;;;;;;;;5002521;28;20278;-74
2023/10/11 03:57:07;;;;;;;7.13;4.60;;;;;;;;;;5012487;28;20252;-74
2023/10/11 03:59:38;;;;;;;6.97;3.57;;;;;;;;;;5006218;28;20265;-75
2023/10/11 04:02:04;;;;;;;6.53;3.80;;;;;;;;;;5000456;28;20184;-74
2023/10/11 04:04:30;;;;;;;4.40;3.70;;;;;;;;;;5004764;28;20185;-74
2023/10/11 04:07:01;;;;;;;9.13;5.07;;;;;;;;;;5014157;28;20195;-74
2023/10/11 04:09:37;;;;;;;7.37;4.40;;;;;;;;;;5006651;28;20192;-74
2023/10/11 04:12:04;;;;;;;8.73;3.77;;;;;;;;;;5009395;28;20182;-72
2023/10/11 04:14:44;;;;;;;9.37;4.30;;;;;;;;;;5007867;28;20190;-74
2023/10/11 04:17:24;;;;;;;11.40;5.43;;;;;;;;;;5005955;28;20274;-74
2023/10/11 04:19:50;;;;;;;6.27;3.97;;;;;;;;;;5020013;28;20194;-74
2023/10/11 04:22:23;;;;;;;9.13;4.30;;;;;;;;;;5009079;28;20238;-74
2023/10/11 04:24:49;;;;;;;8.00;3.83;;;;;;;;;;5002512;28;20177;-74
2023/10/11 04:27:45;;;;;;;11.50;4.80;;;;;;;;;;5009620;28;20205;-74
2023/10/11 04:30:17;;;;;;;7.27;4.03;;;;;;;;;;5008769;28;20212;-74
2023/10/11 04:32:45;;;;;;;8.57;5.00;;;;;;;;;;5011642;28;20171;-74
2023/10/11 04:35:25;;;;;;;7.77;3.90;;;;;;;;;;5003492;28;20262;-74
2023/10/11 04:38:01;;;;;;;7.50;3.70;;;;;;;;;;5000438;28;20210;-74
2023/10/11 04:40:40;;;;;;;7.23;3.80;;;;;;;;;;5010340;28;20253;-74
2023/10/11 04:43:25;;;;;;;9.70;4.00;;;;;;;;;;5003641;28;20301;-74
2023/10/11 04:45:51;;;;;;;6.93;3.80;;;;;;;;;;5010637;28;20253;-74
2023/10/11 04:48:30;;;;;;;7.80;3.83;;;;;;;;;;5003856;28;20280;-74
2023/10/11 04:51:06;;;;;;;10.83;4.73;;;;;;;;;;4998347;28;20174;-73
2023/10/11 04:54:14;;;;;;;6.83;4.13;;;;;;;;;;5025228;28;20276;-73
2023/10/11 04:59:07;;;;;;;10.27;4.20;;;;;;;;;;5013902;28;20215;-73
2023/10/11 05:04:15;;;;;;;9.00;4.70;;;;;;;;;;5009104;28;20193;-71
2023/10/11 05:06:43;;;;;;;9.93;4.30;;;;;;;;;;5009547;28;20214;-71
2023/10/11 05:09:14;;;;;;;6.10;4.60;;;;;;;;;;5004580;28;20186;-71
2023/10/11 05:11:44;;;;;;;14.40;4.27;;;;;;;;;;5010259;28;20179;-71
2023/10/11 05:14:37;;;;;;;5.90;4.20;;;;;;;;;;5007067;28;20184;-71
2023/10/11 05:19:47;;;;;;;8.80;3.90;;;;;;;;;;5012926;28;20199;-71
2023/10/11 05:23:14;;;;;;;6.83;4.27;;;;;;;;;;5006430;28;20191;-71
2023/10/11 05:28:07;;;;;;;8.13;3.70;;;;;;;;;;5002673;28;20209;-71
2023/10/11 05:30:33;;;;;;;13.33;5.60;;;;;;;;;;5009516;28;20250;-71
2023/10/11 05:33:15;;;;;;;6.10;3.80;;;;;;;;;;5006593;28;20183;-71
2023/10/11 05:36:09;;;;;;;8.87;4.10;;;;;;;;;;5005958;28;20282;-70
2023/10/11 05:52:09;;;;;;;8.27;4.17;;;;;;;;;;5011527;28;20213;-71
2023/10/11 05:54:37;;;;;;;5.93;3.83;;;;;;;;;;5018296;28;20178;-71
2023/10/11 05:57:06;;;;;;;7.23;4.47;;;;;;;;;;5009066;28;20187;-71
2023/10/11 05:59:32;;;;;;;13.37;4.00;;;;;;;;;;5008471;28;20186;-70
2023/10/11 06:01:57;;;;;;;6.93;3.53;;;;;;;;;;5013793;28;20253;-71
2023/10/11 06:04:23;;;;;;;7.13;3.30;;;;;;;;;;5013953;28;20186;-71
2023/10/11 06:06:52;;;;;;;7.07;3.63;;;;;;;;;;5014045;28;20203;-71
2023/10/11 06:09:17;;;;;;;7.30;4.20;;;;;;;;;;5011910;28;20180;-71
2023/10/11 06:11:48;;;;;;;8.53;4.07;;;;;;;;;;5008879;28;20190;-71
2023/10/11 06:14:16;;;;;;;9.20;3.67;;;;;;;;;;5008577;28;20246;-71
2023/10/11 06:16:43;;;;;;;37.53;8.33;;;;;;;;;;5022358;28;20187;-71
2023/10/11 06:19:25;;;;;;;12.13;3.70;;;;;;;;;;5008702;28;20183;-71
2023/10/11 06:21:57;;;;;;;10.10;4.30;;;;;;;;;;5007791;28;20250;-71
2023/10/11 06:24:36;;;;;;;6.13;4.60;;;;;;;;;;5007451;28;20207;-71
2023/10/11 06:29:37;;;;;;;12.87;4.20;;;;;;;;;;5010458;28;20174;-70
2023/10/11 06:32:10;;;;;;;16.07;4.63;;;;;;;;;;5008574;28;20178;-71
2023/10/11 06:34:35;;;;;;;6.93;3.73;;;;;;;;;;5010867;28;20210;-71
2023/10/11 06:37:01;;;;;;;22.80;5.60;;;;;;;;;;5013275;28;20232;-71
2023/10/11 06:42:13;;;;;;;11.57;4.37;;;;;;;;;;5010980;28;20246;-71
2023/10/11 06:44:42;;;;;;;7.80;3.73;;;;;;;;;;5017598;28;20168;-70
2023/10/11 06:47:11;;;;;;;9.93;4.27;;;;;;;;;;5013446;28;20225;-71
2023/10/11 06:49:47;;;;;;;11.87;4.40;;;;;;;;;;5008947;28;20196;-71
2023/10/11 06:52:19;;;;;;;9.97;3.90;;;;;;;;;;5006257;28;20170;-71
2023/10/11 06:54:48;;;;;;;8.30;3.90;;;;;;;;;;5011812;28;20185;-71
2023/10/11 06:57:17;;;;;;;6.30;4.00;;;;;;;;;;5019542;28;20182;-71
2023/10/11 06:59:42;;;;;;;16.47;4.47;;;;;;;;;;5015468;28;20180;-71
2023/10/11 07:02:17;;;;;;;9.33;4.10;;;;;;;;;;5013568;28;20199;-71
2023/10/11 07:04:50;;;;;;;13.63;4.60;;;;;;;;;;5030817;28;20270;-71
2023/10/11 07:07:16;;;;;;;39.80;9.20;;;;;;;;;;5013790;28;20214;-71
2023/10/11 07:09:41;;;;;;;9.27;4.27;;;;;;;;;;5012562;28;20176;-71
2023/10/11 07:12:28;;;;;;;12.83;3.90;;;;;;;;;;5013310;28;20311;-71
2023/10/11 07:14:54;;;;;;;12.27;4.20;;;;;;;;;;5020010;28;20404;-71
2023/10/11 07:17:21;;;;;;;10.93;3.50;;;;;;;;;;5012509;28;20180;-71
2023/10/11 07:19:50;;;;;;;11.10;4.47;;;;;;;;;;5013412;28;20182;-71
2023/10/11 07:22:18;;;;;;;7.53;4.73;;;;;;;;;;5011514;28;20187;-71
2023/10/11 07:24:44;;;;;;;6.27;3.73;;;;;;;;;;5005205;28;20195;-71
2023/10/11 07:27:09;;;;;;;8.40;4.07;;;;;;;;;;5027936;28;20280;-71
2023/10/11 07:29:42;;;;;;;7.50;3.40;;;;;;;;;;5028775;28;20180;-71
2023/10/11 07:32:09;;;;;;;11.37;3.87;;;;;;;;;;5012191;28;20204;-71
2023/10/11 07:34:36;;;;;;;10.10;3.93;;;;;;;;;;5010961;28;20182;-71
2023/10/11 07:37:04;;;;;;;9.70;3.80;;;;;;;;;;5018052;28;20187;-71
2023/10/11 07:39:33;;;;;;;7.63;3.40;;;;;;;;;;5012045;28;20184;-71
2023/10/11 07:42:08;;;;;;;6.00;3.43;;;;;;;;;;5017259;28;20187;-71
2023/10/11 07:44:36;;;;;;;9.23;4.67;;;;;;;;;;5017128;28;20192;-71
2023/10/11 07:47:03;;;;;;;7.73;4.17;;;;;;;;;;5012871;28;20209;-71
2023/10/11 07:49:28;;;;;;;8.33;4.00;;;;;;;;;;5012178;28;20186;-71
2023/10/11 07:51:58;;;;;;;13.10;4.77;;;;;;;;;;5013526;28;20188;-71
2023/10/11 07:54:25;;;;;;;8.60;4.27;;;;;;;;;;5010033;28;20186;-70
2023/10/11 07:56:57;;;;;;;8.23;3.77;;;;;;;;;;5013111;28;20250;-71
2023/10/11 07:59:26;;;;;;;12.17;4.50;;;;;;;;;;5013052;28;20218;-71
2023/10/11 08:01:53;;;;;;;11.87;4.47;;;;;;;;;;5013623;28;20225;-71
2023/10/11 08:04:21;;;;;;;4.93;4.10;;;;;;;;;;5014515;28;20257;-71
2023/10/11 08:06:46;;;;;;;9.80;3.97;;;;;;;;;;5013957;28;20212;-71
2023/10/11 08:09:19;;;;;;;10.53;3.93;;;;;;;;;;5010663;28;20186;-71
2023/10/11 08:11:52;;;;;;;9.13;4.07;;;;;;;;;;5007160;28;20182;-71
2023/10/11 08:14:22;;;;;;;9.90;4.70;;;;;;;;;;5012189;28;20186;-71
2023/10/11 08:16:50;;;;;;;15.07;4.50;;;;;;;;;;5010554;28;20187;-71
2023/10/11 08:19:15;;;;;;;11.17;4.33;;;;;;;;;;5016943;28;20180;-71
2023/10/11 08:21:47;;;;;;;9.87;3.83;;;;;;;;;;5011013;28;20179;-71
2023/10/11 08:24:15;;;;;;;9.97;4.20;;;;;;;;;;5013175;28;20179;-71
2023/10/11 08:26:45;;;;;;;12.80;3.77;;;;;;;;;;5008523;28;20275;-71
2023/10/11 08:29:27;;;;;;;15.60;3.93;;;;;;;;;;5008181;28;20179;-71
2023/10/11 08:31:53;;;;;;;13.47;4.63;;;;;;;;;;5012068;28;20198;-71
2023/10/11 08:34:18;;;;;;;9.47;3.80;;;;;;;;;;5017488;28;20185;-71
2023/10/11 08:36:43;;;;;;;6.03;3.80;;;;;;;;;;5014432;28;20239;-71
2023/10/11 08:39:09;;;;;;;12.80;4.27;;;;;;;;;;5010960;28;20180;-71
2023/10/11 08:41:34;;;;;;;8.77;3.53;;;;;;;;;;5004470;28;20201;-71
2023/10/11 08:44:01;;;;;;;10.83;4.40;;;;;;;;;;5009483;28;20190;-71
2023/10/11 08:46:32;;;;;;;10.17;3.43;;;;;;;;;;5014982;28;20368;-71
2023/10/11 08:49:00;;;;;;;8.07;3.90;;;;;;;;;;5013723;28;20258;-71
2023/10/11 08:51:34;;;;;;;9.23;3.67;;;;;;;;;;5014911;28;20192;-71
2023/10/11 08:54:00;;;;;;;10.07;4.07;;;;;;;;;;5010730;28;20227;-71
2023/10/11 08:56:25;;;;;;;10.90;4.33;;;;;;;;;;5026472;28;20180;-71
2023/10/11 08:58:53;;;;;;;11.17;4.03;;;;;;;;;;5013836;28;20199;-71
2023/10/11 09:01:18;;;;;;;9.27;3.30;;;;;;;;;;5009824;28;20190;-71
2023/10/11 09:04:01;;;;;;;8.27;3.73;;;;;;;;;;5011884;28;20182;-71
2023/10/11 09:06:26;;;;;;;11.13;3.90;;;;;;;;;;5011214;28;20174;-71
2023/10/11 09:08:51;;;;;;;11.23;4.10;;;;;;;;;;5012076;28;20174;-71
2023/10/11 09:11:29;;;;;;;18.30;4.87;;;;;;;;;;5009001;28;20177;-71
2023/10/11 09:14:13;;;;;;;16.53;4.80;;;;;;;;;;5009240;28;20177;-71
2023/10/11 09:16:39;;;;;;;10.97;4.20;;;;;;;;;;5009897;28;20187;-71
2023/10/11 09:19:10;;;;;;;6.23;3.67;;;;;;;;;;5014471;28;20176;-71
2023/10/11 09:21:42;;;;;;;7.60;4.23;;;;;;;;;;5011079;28;20198;-71
2023/10/11 09:24:23;;;;;;;9.33;3.47;;;;;;;;;;5002927;23;20238;-68
2023/10/11 09:27:08;;;;;;;10.80;4.10;;;;;;;;;;4952624;28;20239;-69
2023/10/11 09:29:34;;;;;;;10.23;4.17;;;;;;;;;;4953880;28;20188;-68
2023/10/11 09:31:59;;;;;;;11.07;3.80;;;;;;;;;;4969368;28;20263;-69
2023/10/11 09:34:28;;;;;;;11.53;4.07;;;;;;;;;;4952650;28;20272;-68
2023/10/11 09:36:56;;;;;;;10.13;4.17;;;;;;;;;;4972953;28;21002;-69
2023/10/11 09:39:21;;;;;;;9.27;4.03;;;;;;;;;;4957751;28;20179;-69
2023/10/11 09:41:52;;;;;;;9.88;3.65;;;;;;;;;;4954379;28;20248;-69
2023/10/11 09:44:21;;;;;;;8.95;3.80;;;;;;;;;;4971426;28;20204;-69
2023/10/11 09:46:48;;;;;;;8.65;3.28;;;;;;;;;;4955334;28;20231;-68
2023/10/11 09:54:17;;;;;;;11.23;4.32;;;;;;;;;;4969171;28;20217;-71
2023/10/11 09:56:50;;;;;;;7.75;4.00;;;;;;;;;;4969338;28;20188;-71
2023/10/11 09:59:24;;;;;;;25.25;5.72;;;;;;;;;;4969306;28;20191;-71
2023/10/11 10:02:19;;;;;;;10.70;4.50;;;;;;;;;;4971684;28;20176;-71
2023/10/11 10:04:54;;;;;;;9.93;3.97;;;;;;;;;;4978181;28;20351;-71
2023/10/11 10:07:28;;;;;;;19.83;5.65;;;;;;;;;;4965767;28;20212;-71
2023/10/11 10:09:59;;;;;;;7.90;4.47;;;;;;;;;;4969247;28;20211;-71
2023/10/11 10:12:25;;;;;;;13.65;4.38;;;;;;;;;;4976383;28;20207;-71
2023/10/11 10:15:13;;;;;;;12.20;3.78;;;;;;;;;;4969899;28;20200;-71
2023/10/11 10:17:39;;;;;;;9.38;3.92;;;;;;;;;;4969728;28;20254;-71
2023/10/11 10:20:23;;;;;;;10.27;4.05;;;;;;;;;;4969847;28;20176;-71
2023/10/11 10:23:06;;;;;;;10.15;3.75;;;;;;;;;;4972692;28;20240;-71
2023/10/11 10:25:32;;;;;;;11.82;4.28;;;;;;;;;;4962997;28;20254;-71
2023/10/11 10:27:57;;;;;;;9.23;4.15;;;;;;;;;;4970276;28;20312;-71
2023/10/11 10:30:27;;;;;;;13.45;4.32;;;;;;;;;;4968558;28;20200;-72
2023/10/11 10:33:11;;;;;;;8.43;3.65;;;;;;;;;;4969388;28;20177;-72
2023/10/11 10:35:39;;;;;;;9.43;3.95;;;;;;;;;;4964309;28;20195;-72
2023/10/11 10:38:09;;;;;;;7.88;4.03;;;;;;;;;;4972570;28;20231;-71
2023/10/11 10:40:37;;;;;;;11.27;3.95;;;;;;;;;;4967892;28;20180;-71
2023/10/11 10:43:19;;;;;;;8.65;4.30;;;;;;;;;;4971019;28;20244;-72
2023/10/11 10:45:48;;;;;;;9.60;4.18;;;;;;;;;;4964282;28;20177;-71
2023/10/11 10:48:23;;;;;;;7.15;3.97;;;;;;;;;;4975252;28;20201;-71
2023/10/11 10:50:49;;;;;;;14.68;5.05;;;;;;;;;;4967902;28;20196;-72
2023/10/11 10:53:17;;;;;;;6.55;4.22;;;;;;;;;;4969460;28;20221;-71
2023/10/11 10:55:45;;;;;;;10.07;4.03;;;;;;;;;;4970589;28;20384;-72
2023/10/11 10:58:17;;;;;;;7.07;4.22;;;;;;;;;;4969704;28;20223;-72
2023/10/11 11:00:43;;;;;;;8.20;4.00;;;;;;;;;;4970919;28;20240;-72
2023/10/11 11:03:24;;;;;;;8.35;4.15;;;;;;;;;;4970173;28;20169;-72
2023/10/11 11:06:00;;;;;;;7.20;4.18;;;;;;;;;;4966687;28;20184;-72
2023/10/11 11:08:29;;;;;;;7.97;4.03;;;;;;;;;;4969514;28;20268;-72
2023/10/11 11:11:18;;;;;;;6.70;4.15;;;;;;;;;;4969878;28;20177;-72
2023/10/11 11:13:44;;;;;;;6.22;4.03;;;;;;;;;;4969970;28;20173;-72
2023/10/11 11:16:14;;;;;;;8.23;4.50;;;;;;;;;;4970590;28;20177;-72
2023/10/11 11:18:43;;;;;;;7.50;4.05;;;;;;;;;;4967517;28;20185;-72
2023/10/11 11:21:20;;;;;;;9.80;4.43;;;;;;;;;;4969323;28;20227;-72
2023/10/11 11:23:51;;;;;;;8.50;4.13;;;;;;;;;;4962873;28;20190;-71
2023/10/11 11:26:18;;;;;;;5.78;3.80;;;;;;;;;;4965868;28;20323;-72
2023/10/11 11:28:46;;;;;;;8.50;4.13;;;;;;;;;;4969067;28;20213;-72
2023/10/11 11:34:04;;;;;;;9.00;5.03;;;;;;;;;;4970456;28;20165;-72
2023/10/11 11:36:34;;;;;;;6.13;3.97;;;;;;;;;;4967798;28;20177;-72
2023/10/11 11:39:17;;;;;;;6.55;3.83;;;;;;;;;;4966642;28;20185;-72
2023/10/11 11:41:43;;;;;;;8.75;4.57;;;;;;;;;;4966734;28;20176;-72
2023/10/11 11:44:17;;;;;;;9.68;3.85;;;;;;;;;;4974291;28;20172;-72
2023/10/11 11:46:43;;;;;;;8.23;4.22;;;;;;;;;;4973406;28;20268;-72
2023/10/11 11:49:09;;;;;;;10.77;5.10;;;;;;;;;;4972022;28;20224;-71
2023/10/11 11:51:37;;;;;;;7.68;4.03;;;;;;;;;;4968755;28;20197;-75
2023/10/11 11:54:03;;;;;;;10.68;3.65;;;;;;;;;;4968103;28;20220;-77
2023/10/11 11:56:28;;;;;;;5.85;4.07;;;;;;;;;;4989581;28;20186;-77
2023/10/11 11:59:00;;;;;;;9.48;4.18;;;;;;;;;;4972663;28;20177;-77
2023/10/11 12:01:26;;;;;;;9.45;4.00;;;;;;;;;;4970141;28;20178;-77
2023/10/11 12:03:55;;;;;;;12.68;4.40;;;;;;;;;;4971499;28;20232;-76
2023/10/11 12:06:23;;;;;;;9.57;4.13;;;;;;;;;;4969949;28;20388;-75
2023/10/11 12:08:57;;;;;;;6.47;4.03;;;;;;;;;;4968009;28;20208;-76
2023/10/11 12:11:22;;;;;;;11.10;4.50;;;;;;;;;;4971328;28;20187;-77
2023/10/11 12:13:47;;;;;;;8.40;3.75;;;;;;;;;;4970645;28;20176;-78
2023/10/11 12:16:14;;;;;;;10.23;3.88;;;;;;;;;;4970954;28;20179;-76
2023/10/11 12:18:39;;;;;;;7.38;3.58;;;;;;;;;;4974772;28;20184;-76
2023/10/11 12:21:22;;;;;;;4.80;3.08;;;;;;;;;;4968453;28;20187;-77
2023/10/11 12:23:47;;;;;;;5.28;3.55;;;;;;;;;;4971307;28;20177;-77
2023/10/11 12:26:16;;;;;;;7.07;4.00;;;;;;;;;;4972931;28;20239;-76
2023/10/11 12:28:41;;;;;;;8.63;4.25;;;;;;;;;;4973294;28;20208;-76
2023/10/11 12:31:07;;;;;;;13.45;4.10;;;;;;;;;;4972633;28;20177;-77
2023/10/11 12:33:33;;;;;;;9.00;4.82;;;;;;;;;;4973350;28;20193;-77
2023/10/11 12:35:58;;;;;;;10.85;4.28;;;;;;;;;;4972310;28;20172;-76
2023/10/11 12:38:23;;;;;;;9.13;3.97;;;;;;;;;;4972832;28;20184;-76
2023/10/11 12:40:49;;;;;;;8.63;4.03;;;;;;;;;;4969801;28;20196;-77
2023/10/11 12:43:14;;;;;;;9.43;4.22;;;;;;;;;;4979915;28;20231;-77
2023/10/11 12:45:42;;;;;;;11.40;4.32;;;;;;;;;;4977344;28;20234;-76
2023/10/11 12:48:10;;;;;;;7.75;3.78;;;;;;;;;;4966904;28;20327;-76
2023/10/11 12:50:36;;;;;;;13.80;4.72;;;;;;;;;;4968849;28;20291;-78
2023/10/11 12:53:10;;;;;;;7.63;3.92;;;;;;;;;;4969802;28;20224;-77
2023/10/11 12:55:35;;;;;;;8.38;4.70;;;;;;;;;;4967311;28;20177;-77
2023/10/11 12:58:00;;;;;;;14.48;4.63;;;;;;;;;;4970106;28;20188;-76
2023/10/11 13:00:29;;;;;;;8.32;4.03;;;;;;;;;;4972654;28;20191;-77
2023/10/11 13:02:58;;;;;;;9.27;4.35;;;;;;;;;;4972735;28;20192;-77
2023/10/11 13:05:26;;;;;;;7.97;3.75;;;;;;;;;;4969785;28;20181;-76
2023/10/11 13:07:54;;;;;;;8.85;3.75;;;;;;;;;;4974044;28;20227;-76
2023/10/11 13:10:22;;;;;;;7.93;3.80;;;;;;;;;;4970776;28;20173;-76
2023/10/11 13:12:48;;;;;;;12.02;3.85;;;;;;;;;;4970370;28;20192;-77
2023/10/11 13:15:16;;;;;;;8.43;3.90;;;;;;;;;;4972183;28;20212;-77
2023/10/11 13:17:41;;;;;;;10.98;4.00;;;;;;;;;;4967729;28;20165;-77
2023/10/11 13:20:08;;;;;;;6.25;3.55;;;;;;;;;;4971410;28;20185;-76
2023/10/11 13:22:34;;;;;;;7.80;3.78;;;;;;;;;;4969241;28;20212;-76
2023/10/11 13:24:59;;;;;;;10.43;3.97;;;;;;;;;;4970136;28;20219;-77
2023/10/11 13:27:26;;;;;;;8.68;3.58;;;;;;;;;;4968537;28;20256;-76
2023/10/11 13:29:51;;;;;;;13.43;4.18;;;;;;;;;;4954099;28;20177;-76
2023/10/11 13:32:17;;;;;;;8.00;4.35;;;;;;;;;;4973917;28;20227;-77
2023/10/11 13:34:42;;;;;;;6.70;3.67;;;;;;;;;;4960928;28;20228;-76
2023/10/11 13:37:08;;;;;;;6.95;3.85;;;;;;;;;;4969264;28;20200;-77
2023/10/11 13:39:45;;;;;;;6.05;3.40;;;;;;;;;;4962206;28;20192;-78
2023/10/11 13:42:14;;;;;;;8.75;4.38;;;;;;;;;;4966625;28;20172;-77
2023/10/11 13:44:39;;;;;;;8.93;3.78;;;;;;;;;;4964295;28;20244;-77
2023/10/11 13:47:05;;;;;;;7.32;3.90;;;;;;;;;;4966421;28;20209;-77
2023/10/11 13:49:33;;;;;;;10.18;3.67;;;;;;;;;;4966635;28;20185;-76
2023/10/11 13:52:01;;;;;;;10.18;3.92;;;;;;;;;;4965289;28;20183;-77
2023/10/11 13:54:36;;;;;;;6.63;4.47;;;;;;;;;;4969996;28;20179;-77
2023/10/11 13:57:10;;;;;;;4.82;3.25;;;;;;;;;;4969421;28;20185;-76
2023/10/11 13:59:45;;;;;;;4.40;3.70;;;;;;;;;;4963153;28;20250;-77
2023/10/11 14:07:23;;;;;;;6.90;4.25;;;;;;;;;;4965013;28;20200;-76
2023/10/11 14:09:52;;;;;;;5.55;3.53;;;;;;;;;;4965698;28;20252;-77
2023/10/11 14:12:18;;;;;;;7.32;3.63;;;;;;;;;;4964038;28;20224;-76
2023/10/11 14:14:43;;;;;;;6.63;3.75;;;;;;;;;;4965805;28;20267;-77
2023/10/11 14:17:15;;;;;;;8.48;4.13;;;;;;;;;;4968253;28;20212;-75
2023/10/11 14:19:40;;;;;;;12.65;3.95;;;;;;;;;;4967465;28;20203;-76
2023/10/11 14:22:05;;;;;;;12.07;4.47;;;;;;;;;;4970369;28;20177;-77
2023/10/11 14:24:31;;;;;;;9.13;4.30;;;;;;;;;;4965474;28;20732;-77
2023/10/11 14:26:56;;;;;;;6.18;3.35;;;;;;;;;;4970109;28;20223;-77
2023/10/11 14:29:21;;;;;;;9.10;3.72;;;;;;;;;;4972448;28;20183;-77
2023/10/11 14:31:46;;;;;;;5.57;3.70;;;;;;;;;;4970214;28;20175;-77
2023/10/11 14:34:11;;;;;;;6.03;3.80;;;;;;;;;;4969168;28;20185;-77
2023/10/11 14:36:39;;;;;;;7.97;3.95;;;;;;;;;;4974780;28;20249;-77
2023/10/11 14:39:17;;;;;;;8.75;4.03;;;;;;;;;;4969926;28;20172;-76
2023/10/11 14:41:42;;;;;;;6.10;3.80;;;;;;;;;;4969318;28;20208;-76
2023/10/11 14:44:08;;;;;;;6.35;3.65;;;;;;;;;;4968070;28;20213;-77
2023/10/11 14:46:35;;;;;;;8.60;4.00;;;;;;;;;;4967630;28;20177;-77
2023/10/11 14:49:00;;;;;;;5.45;3.90;;;;;;;;;;4965638;28;20208;-77
2023/10/11 14:51:26;;;;;;;6.53;3.10;;;;;;;;;;4969951;28;20223;-76
2023/10/11 14:53:51;;;;;;;6.53;3.58;;;;;;;;;;4973975;28;20216;-77
2023/10/11 14:56:16;;;;;;;9.43;4.57;;;;;;;;;;4970778;28;20177;-77
2023/10/11 14:58:43;;;;;;;9.32;3.78;;;;;;;;;;4966965;28;20184;-76
2023/10/11 15:01:08;;;;;;;6.82;4.03;;;;;;;;;;4967590;28;20176;-76
2023/10/11 15:03:37;;;;;;;5.72;3.25;;;;;;;;;;4969347;28;20185;-77
2023/10/11 15:06:09;;;;;;;13.85;5.00;;;;;;;;;;4977272;28;20204;-76
2023/10/11 15:08:44;;;;;;;5.97;3.72;;;;;;;;;;4968043;28;20196;-76
2023/10/11 15:11:11;;;;;;;7.38;3.95;;;;;;;;;;4964404;28;20168;-76
2023/10/11 15:13:36;;;;;;;7.15;4.05;;;;;;;;;;4973775;28;20173;-76
2023/10/11 15:16:03;;;;;;;8.02;4.45;;;;;;;;;;4972800;28;20237;-77
2023/10/11 15:18:29;;;;;;;5.95;3.53;;;;;;;;;;4969464;28;20186;-76
2023/10/11 15:20:54;;;;;;;5.07;3.13;;;;;;;;;;4973556;28;20188;-76
2023/10/11 15:23:19;;;;;;;3.85;3.22;;;;;;;;;;4967792;28;20185;-76
2023/10/11 15:25:44;;;;;;;4.75;3.72;;;;;;;;;;4971603;28;20177;-77
2023/10/11 15:28:09;;;;;;;9.35;3.58;;;;;;;;;;4976251;28;20196;-75
2023/10/11 15:30:40;;;;;;;8.98;3.90;;;;;;;;;;4958712;28;20272;-76
2023/10/11 15:33:06;;;;;;;5.75;3.42;;;;;;;;;;4971796;28;20176;-76
2023/10/11 15:35:33;;;;;;;4.35;3.13;;;;;;;;;;4973388;28;20180;-76
2023/10/11 15:38:00;;;;;;;6.75;3.88;;;;;;;;;;4969536;28;20189;-77
2023/10/11 15:40:26;;;;;;;6.30;3.47;;;;;;;;;;4973376;28;20173;-76